createdAt,value
2019-05-23T00:00:29.243Z,12.79
2019-05-23T00:01:29.196Z,12.77
2019-05-23T00:02:29.194Z,12.67
2019-05-23T00:03:29.177Z,12.67
2019-05-23T00:04:29.161Z,12.69
2019-05-23T00:05:29.156Z,12.62
2019-05-23T00:06:29.235Z,12.69
2019-05-23T00:07:29.128Z,12.64
2019-05-23T00:08:29.129Z,12.59
2019-05-23T00:09:29.115Z,12.62
2019-05-23T00:10:29.145Z,12.62
2019-05-23T00:11:29.091Z,12.52
2019-05-23T00:12:29.087Z,12.57
2019-05-23T00:13:29.065Z,12.54
2019-05-23T00:14:29.050Z,12.66
2019-05-23T00:15:29.037Z,12.59
2019-05-23T00:16:29.114Z,12.56
2019-05-23T00:17:29.102Z,12.56
2019-05-23T00:18:29.005Z,12.56
2019-05-23T00:19:28.999Z,12.56
2019-05-23T00:20:28.987Z,12.54
2019-05-23T00:21:28.975Z,12.54
2019-05-23T00:22:29.053Z,12.51
2019-05-23T00:23:28.952Z,12.52
2019-05-23T00:24:28.939Z,12.45
2019-05-23T00:25:28.934Z,12.44
2019-05-23T00:26:28.918Z,12.38
2019-05-23T00:27:28.942Z,12.44
2019-05-23T00:28:28.892Z,12.41
2019-05-23T00:29:28.887Z,12.54
2019-05-23T00:30:28.877Z,12.48
2019-05-23T00:31:28.870Z,12.45
2019-05-23T00:32:28.960Z,12.48
2019-05-23T00:33:28.842Z,12.45
2019-05-23T00:34:28.830Z,12.44
2019-05-23T00:35:28.830Z,12.42
2019-05-23T00:36:28.803Z,12.48
2019-05-23T00:37:28.819Z,12.45
2019-05-23T00:38:28.871Z,12.44
2019-05-23T00:39:28.775Z,12.45
2019-05-23T00:40:28.762Z,12.45
2019-05-23T00:41:28.752Z,12.48
2019-05-23T00:42:28.785Z,12.45
2019-05-23T00:43:28.739Z,12.41
2019-05-23T00:44:28.736Z,12.30
2019-05-23T00:45:28.701Z,12.34
2019-05-23T00:46:28.690Z,12.31
2019-05-23T00:47:28.689Z,12.27
2019-05-23T00:48:28.704Z,12.39
2019-05-23T00:49:28.663Z,12.27
2019-05-23T00:50:28.650Z,12.38
2019-05-23T00:51:28.642Z,12.38
2019-05-23T00:52:28.626Z,12.33
2019-05-23T00:53:28.614Z,12.37
2019-05-23T00:54:28.716Z,12.30
2019-05-23T00:55:28.599Z,12.39
2019-05-23T00:56:28.580Z,12.38
2019-05-23T00:57:28.586Z,12.34
2019-05-23T00:58:28.561Z,12.37
2019-05-23T00:59:28.551Z,12.29
2019-05-23T01:00:28.580Z,12.33
2019-05-23T01:01:28.530Z,12.39
2019-05-23T01:02:28.510Z,12.16
2019-05-23T01:03:28.512Z,12.23
2019-05-23T01:04:28.496Z,12.20
2019-05-23T01:05:28.565Z,12.34
2019-05-23T01:06:28.469Z,12.30
2019-05-23T01:07:28.494Z,12.23
2019-05-23T01:08:28.452Z,12.23
2019-05-23T01:09:28.441Z,12.23
2019-05-23T01:10:28.428Z,12.21
2019-05-23T01:11:28.421Z,12.39
2019-05-23T01:12:28.511Z,12.34
2019-05-23T01:13:28.394Z,12.21
2019-05-23T01:14:28.381Z,12.23
2019-05-23T01:15:28.374Z,12.23
2019-05-23T01:16:28.367Z,12.24
2019-05-23T01:17:28.459Z,12.24
2019-05-23T01:18:28.357Z,12.19
2019-05-23T01:19:28.411Z,12.21
2019-05-23T01:20:28.317Z,12.21
2019-05-23T01:21:28.321Z,12.26
2019-05-23T01:22:28.309Z,12.09
2019-05-23T01:23:28.284Z,12.13
2019-05-23T01:24:28.357Z,12.09
2019-05-23T01:25:28.281Z,12.08
2019-05-23T01:26:28.334Z,12.08
2019-05-23T01:27:28.372Z,12.08
2019-05-23T01:28:28.231Z,12.15
2019-05-23T01:29:37.399Z,12.16
2019-05-23T01:30:29.203Z,12.13
2019-05-23T01:31:28.203Z,12.15
2019-05-23T01:32:28.185Z,12.09
2019-05-23T01:33:28.173Z,12.16
2019-05-23T01:34:28.162Z,12.15
2019-05-23T01:35:28.234Z,12.11
2019-05-23T01:36:28.140Z,12.11
2019-05-23T01:37:28.129Z,12.13
2019-05-23T01:38:28.112Z,12.15
2019-05-23T01:39:28.141Z,12.12
2019-05-23T01:40:28.097Z,12.12
2019-05-23T01:41:28.083Z,12.12
2019-05-23T01:42:28.069Z,12.11
2019-05-23T01:43:28.061Z,12.06
2019-05-23T01:44:28.054Z,11.99
2019-05-23T01:45:28.048Z,12.09
2019-05-23T01:46:28.037Z,11.93
2019-05-23T01:47:28.017Z,11.89
2019-05-23T01:48:28.002Z,11.99
2019-05-23T01:49:27.998Z,11.93
2019-05-23T01:50:28.066Z,11.96
2019-05-23T01:51:27.976Z,11.97
2019-05-23T01:52:27.970Z,11.96
2019-05-23T01:53:27.946Z,11.93
2019-05-23T01:54:27.937Z,11.90
2019-05-23T01:55:27.963Z,11.86
2019-05-23T01:56:27.939Z,11.93
2019-05-23T01:57:27.912Z,11.80
2019-05-23T01:58:27.897Z,11.82
2019-05-23T01:59:27.886Z,11.83
2019-05-23T02:00:27.891Z,11.77
2019-05-23T02:01:27.953Z,11.75
2019-05-23T02:02:27.864Z,11.77
2019-05-23T02:03:27.853Z,11.75
2019-05-23T02:04:27.826Z,11.71
2019-05-23T02:05:27.818Z,11.75
2019-05-23T02:06:27.901Z,11.72
2019-05-23T02:07:28.504Z,11.82
2019-05-23T02:08:27.827Z,11.71
2019-05-23T02:09:27.809Z,11.61
2019-05-23T02:10:27.765Z,11.59
2019-05-23T02:11:27.822Z,11.71
2019-05-23T02:12:27.743Z,11.64
2019-05-23T02:13:27.740Z,11.61
2019-05-23T02:14:27.721Z,11.53
2019-05-23T02:15:27.715Z,11.49
2019-05-23T02:16:27.781Z,11.57
2019-05-23T02:17:27.769Z,11.59
2019-05-23T02:18:27.678Z,11.43
2019-05-23T02:19:27.667Z,11.41
2019-05-23T02:20:27.657Z,11.46
2019-05-23T02:21:28.543Z,11.41
2019-05-23T02:22:27.693Z,11.44
2019-05-23T02:23:27.631Z,11.49
2019-05-23T02:24:27.665Z,11.44
2019-05-23T02:25:27.607Z,11.41
2019-05-23T02:26:27.590Z,11.34
2019-05-23T02:27:27.574Z,11.29
2019-05-23T02:28:27.654Z,11.32
2019-05-23T02:29:27.584Z,11.32
2019-05-23T02:30:34.635Z,11.41
2019-05-23T02:31:28.539Z,11.34
2019-05-23T02:32:27.533Z,11.25
2019-05-23T02:33:27.578Z,11.41
2019-05-23T02:34:27.609Z,11.31
2019-05-23T02:35:27.493Z,11.27
2019-05-23T02:36:27.481Z,11.29
2019-05-23T02:37:27.469Z,11.29
2019-05-23T02:38:27.459Z,11.17
2019-05-23T02:39:27.531Z,11.25
2019-05-23T02:40:27.521Z,11.20
2019-05-23T02:41:27.423Z,11.25
2019-05-23T02:42:27.413Z,11.11
2019-05-23T02:43:27.402Z,11.13
2019-05-23T02:44:27.411Z,11.16
2019-05-23T02:45:27.443Z,11.17
2019-05-23T02:46:27.368Z,11.11
2019-05-23T02:47:27.358Z,11.06
2019-05-23T02:48:27.351Z,11.09
2019-05-23T02:49:27.339Z,11.10
2019-05-23T02:50:27.333Z,11.10
2019-05-23T02:51:27.345Z,11.14
2019-05-23T02:52:27.400Z,11.09
2019-05-23T02:53:27.296Z,11.20
2019-05-23T02:54:27.277Z,11.10
2019-05-23T02:55:27.340Z,11.10
2019-05-23T02:56:27.257Z,11.10
2019-05-23T02:57:27.243Z,11.19
2019-05-23T02:58:27.238Z,11.07
2019-05-23T02:59:27.221Z,11.13
2019-05-23T03:00:27.233Z,11.16
2019-05-23T03:01:27.206Z,11.13
2019-05-23T03:02:27.217Z,11.19
2019-05-23T03:03:27.178Z,11.14
2019-05-23T03:04:27.171Z,11.11
2019-05-23T03:05:27.241Z,11.19
2019-05-23T03:06:27.181Z,11.16
2019-05-23T03:07:27.148Z,11.09
2019-05-23T03:08:28.021Z,11.21
2019-05-23T03:09:27.112Z,11.07
2019-05-23T03:10:27.106Z,11.10
2019-05-23T03:11:27.104Z,11.03
2019-05-23T03:12:27.084Z,11.02
2019-05-23T03:13:27.079Z,10.95
2019-05-23T03:14:27.057Z,10.98
2019-05-23T03:15:27.045Z,11.07
2019-05-23T03:16:27.125Z,11.10
2019-05-23T03:17:27.027Z,11.01
2019-05-23T03:18:27.018Z,10.95
2019-05-23T03:19:27.001Z,10.92
2019-05-23T03:20:26.998Z,10.92
2019-05-23T03:21:27.030Z,10.89
2019-05-23T03:22:27.059Z,10.91
2019-05-23T03:23:26.960Z,10.88
2019-05-23T03:24:26.950Z,10.96
2019-05-23T03:25:26.953Z,10.89
2019-05-23T03:26:26.932Z,10.94
2019-05-23T03:27:26.915Z,10.89
2019-05-23T03:28:26.905Z,10.95
2019-05-23T03:29:26.906Z,10.95
2019-05-23T03:30:26.882Z,10.91
2019-05-23T03:31:31.625Z,10.89
2019-05-23T03:32:27.886Z,10.83
2019-05-23T03:33:27.176Z,10.83
2019-05-23T03:34:26.876Z,10.74
2019-05-23T03:35:26.834Z,10.80
2019-05-23T03:36:26.821Z,10.80
2019-05-23T03:37:26.807Z,10.73
2019-05-23T03:38:26.879Z,10.65
2019-05-23T03:39:26.784Z,10.56
2019-05-23T03:40:26.865Z,10.66
2019-05-23T03:41:26.766Z,10.73
2019-05-23T03:42:26.752Z,10.71
2019-05-23T03:43:26.738Z,10.68
2019-05-23T03:44:26.731Z,10.74
2019-05-23T03:45:26.728Z,10.71
2019-05-23T03:46:26.789Z,10.68
2019-05-23T03:47:26.695Z,10.62
2019-05-23T03:48:26.683Z,10.65
2019-05-23T03:49:26.674Z,10.68
2019-05-23T03:50:26.662Z,10.58
2019-05-23T03:51:26.666Z,10.66
2019-05-23T03:52:26.636Z,10.66
2019-05-23T03:53:26.624Z,10.65
2019-05-23T03:54:26.618Z,10.60
2019-05-23T03:55:26.606Z,10.62
2019-05-23T03:56:26.670Z,10.63
2019-05-23T03:57:26.585Z,10.66
2019-05-23T03:58:26.572Z,10.58
2019-05-23T03:59:26.645Z,10.56
2019-05-23T04:00:26.555Z,10.53
2019-05-23T04:01:44.010Z,10.56
2019-05-23T04:02:27.531Z,10.62
2019-05-23T04:03:26.518Z,10.47
2019-05-23T04:04:26.620Z,10.42
2019-05-23T04:05:26.528Z,10.43
2019-05-23T04:06:26.507Z,10.46
2019-05-23T04:07:26.475Z,10.46
2019-05-23T04:08:26.458Z,10.37
2019-05-23T04:09:26.456Z,10.43
2019-05-23T04:10:26.558Z,10.43
2019-05-23T04:11:26.439Z,10.44
2019-05-23T04:12:26.414Z,10.37
2019-05-23T04:13:26.405Z,10.30
2019-05-23T04:14:26.401Z,10.37
2019-05-23T04:15:28.035Z,10.33
2019-05-23T04:16:30.447Z,10.39
2019-05-23T04:17:26.448Z,10.32
2019-05-23T04:18:26.355Z,10.46
2019-05-23T04:19:26.340Z,10.24
2019-05-23T04:20:26.324Z,10.25
2019-05-23T04:21:26.326Z,10.24
2019-05-23T04:22:26.354Z,10.26
2019-05-23T04:23:26.291Z,10.33
2019-05-23T04:24:34.101Z,10.28
2019-05-23T04:25:26.277Z,10.25
2019-05-23T04:26:26.280Z,10.24
2019-05-23T04:27:26.251Z,10.24
2019-05-23T04:28:26.251Z,10.24
2019-05-23T04:29:26.259Z,10.21
2019-05-23T04:30:26.212Z,10.33
2019-05-23T04:31:26.207Z,10.22
2019-05-23T04:32:26.188Z,10.15
2019-05-23T04:33:26.228Z,10.24
2019-05-23T04:34:26.167Z,10.18
2019-05-23T04:35:26.160Z,10.24
2019-05-23T04:36:26.150Z,10.19
2019-05-23T04:37:26.135Z,10.26
2019-05-23T04:38:26.160Z,10.26
2019-05-23T04:39:26.243Z,10.37
2019-05-23T04:40:26.111Z,10.40
2019-05-23T04:41:26.107Z,10.58
2019-05-23T04:42:26.084Z,10.60
2019-05-23T04:43:26.071Z,10.65
2019-05-23T04:44:26.065Z,10.77
2019-05-23T04:45:26.046Z,10.84
2019-05-23T04:46:26.046Z,10.92
2019-05-23T04:47:26.025Z,10.89
2019-05-23T04:48:26.009Z,11.06
2019-05-23T04:49:26.038Z,11.14
2019-05-23T04:50:25.995Z,11.24
2019-05-23T04:51:25.992Z,11.29
2019-05-23T04:52:25.974Z,11.28
2019-05-23T04:53:25.962Z,11.43
2019-05-23T04:54:25.950Z,11.27
2019-05-23T04:55:26.046Z,11.53
2019-05-23T04:56:25.930Z,11.44
2019-05-23T04:57:25.911Z,11.56
2019-05-23T04:58:25.899Z,11.57
2019-05-23T04:59:25.902Z,11.57
2019-05-23T05:00:25.954Z,11.72
2019-05-23T05:01:25.879Z,11.80
2019-05-23T05:02:27.143Z,11.83
2019-05-23T05:03:25.853Z,11.97
2019-05-23T05:04:25.850Z,12.05
2019-05-23T05:05:25.829Z,12.11
2019-05-23T05:06:25.926Z,12.34
2019-05-23T05:07:25.815Z,12.51
2019-05-23T05:08:25.794Z,12.57
2019-05-23T05:09:25.788Z,12.69
2019-05-23T05:10:25.767Z,12.57
2019-05-23T05:11:30.213Z,12.71
2019-05-23T05:12:25.745Z,12.82
2019-05-23T05:13:25.738Z,12.85
2019-05-23T05:14:25.722Z,12.87
2019-05-23T05:15:25.716Z,12.95
2019-05-23T05:16:25.785Z,12.93
2019-05-23T05:17:25.686Z,13.00
2019-05-23T05:18:25.682Z,13.04
2019-05-23T05:19:25.671Z,13.06
2019-05-23T05:20:25.656Z,13.24
2019-05-23T05:21:25.683Z,13.18
2019-05-23T05:22:25.636Z,13.25
2019-05-23T05:23:25.636Z,13.41
2019-05-23T05:24:25.618Z,13.37
2019-05-23T05:25:25.601Z,13.29
2019-05-23T05:26:25.677Z,13.40
2019-05-23T05:27:25.664Z,13.37
2019-05-23T05:28:25.575Z,13.36
2019-05-23T05:29:25.561Z,13.44
2019-05-23T05:30:25.544Z,13.44
2019-05-23T05:31:25.541Z,13.59
2019-05-23T05:32:41.430Z,13.81
2019-05-23T05:33:26.519Z,13.95
2019-05-23T05:34:25.525Z,13.92
2019-05-23T05:35:25.497Z,13.91
2019-05-23T05:36:25.485Z,14.09
2019-05-23T05:37:25.474Z,14.12
2019-05-23T05:38:28.557Z,14.16
2019-05-23T05:39:25.532Z,14.24
2019-05-23T05:40:25.442Z,14.35
2019-05-23T05:41:25.425Z,14.37
2019-05-23T05:42:25.417Z,14.43
2019-05-23T05:43:25.424Z,14.56
2019-05-23T05:44:25.508Z,14.57
2019-05-23T05:45:25.442Z,14.50
2019-05-23T05:46:25.381Z,14.61
2019-05-23T05:47:25.356Z,14.75
2019-05-23T05:48:25.355Z,14.93
2019-05-23T05:49:25.345Z,14.94
2019-05-23T05:50:25.358Z,14.91
2019-05-23T05:51:25.316Z,15.08
2019-05-23T05:52:25.305Z,15.11
2019-05-23T05:53:25.293Z,15.15
2019-05-23T05:54:25.284Z,15.30
2019-05-23T05:55:25.317Z,15.52
2019-05-23T05:56:25.266Z,15.56
2019-05-23T05:57:25.327Z,15.88
2019-05-23T05:58:25.251Z,15.99
2019-05-23T05:59:25.290Z,16.18
2019-05-23T06:00:25.218Z,16.40
2019-05-23T06:01:34.090Z,16.59
2019-05-23T06:02:26.195Z,16.78
2019-05-23T06:03:25.186Z,16.85
2019-05-23T06:04:25.170Z,16.68
2019-05-23T06:05:25.163Z,16.62
2019-05-23T06:06:25.205Z,16.77
2019-05-23T06:07:25.139Z,16.62
2019-05-23T06:08:25.148Z,16.68
2019-05-23T06:09:25.111Z,16.74
2019-05-23T06:10:25.102Z,16.67
2019-05-23T06:11:25.125Z,16.80
2019-05-23T06:12:25.088Z,16.77
2019-05-23T06:13:25.076Z,16.77
2019-05-23T06:14:25.065Z,16.78
2019-05-23T06:15:25.049Z,16.81
2019-05-23T06:16:25.063Z,16.77
2019-05-23T06:17:25.069Z,16.68
2019-05-23T06:18:25.015Z,16.70
2019-05-23T06:19:25.007Z,16.68
2019-05-23T06:20:24.996Z,16.59
2019-05-23T06:21:25.048Z,16.52
2019-05-23T06:22:24.992Z,16.59
2019-05-23T06:23:24.976Z,16.75
2019-05-23T06:24:41.740Z,16.60
2019-05-23T06:25:25.951Z,16.15
2019-05-23T06:26:24.998Z,15.96
2019-05-23T06:27:25.033Z,15.84
2019-05-23T06:28:24.966Z,15.79
2019-05-23T06:29:25.323Z,15.51
2019-05-23T06:30:24.888Z,15.64
2019-05-23T06:31:24.954Z,15.68
2019-05-23T06:32:24.932Z,15.56
2019-05-23T06:33:24.872Z,15.66
2019-05-23T06:34:24.888Z,15.72
2019-05-23T06:35:24.833Z,15.86
2019-05-23T06:36:24.815Z,16.12
2019-05-23T06:37:24.806Z,16.41
2019-05-23T06:38:24.829Z,16.67
2019-05-23T06:39:24.886Z,16.88
2019-05-23T06:40:24.783Z,17.10
2019-05-23T06:41:24.769Z,17.20
2019-05-23T06:42:24.759Z,17.35
2019-05-23T06:43:24.749Z,17.48
2019-05-23T06:44:24.747Z,17.51
2019-05-23T06:45:24.757Z,17.53
2019-05-23T06:46:24.720Z,17.50
2019-05-23T06:47:24.734Z,17.51
2019-05-23T06:48:24.722Z,17.28
2019-05-23T06:49:24.694Z,17.29
2019-05-23T06:50:24.679Z,17.32
2019-05-23T06:51:24.678Z,17.43
2019-05-23T06:52:24.647Z,17.38
2019-05-23T06:53:24.635Z,17.43
2019-05-23T06:54:24.645Z,17.44
2019-05-23T06:55:24.633Z,17.35
2019-05-23T06:56:24.615Z,17.30
2019-05-23T06:57:24.602Z,17.30
2019-05-23T06:58:24.686Z,17.25
2019-05-23T06:59:24.642Z,17.13
2019-05-23T07:00:24.597Z,17.20
2019-05-23T07:01:24.808Z,17.26
2019-05-23T07:02:24.636Z,17.28
2019-05-23T07:03:40.357Z,17.48
2019-05-23T07:04:25.621Z,17.63
2019-05-23T07:05:24.518Z,17.84
2019-05-23T07:06:24.539Z,18.02
2019-05-23T07:07:24.510Z,18.10
2019-05-23T07:08:25.393Z,18.27
2019-05-23T07:09:24.484Z,18.49
2019-05-23T07:10:24.564Z,18.59
2019-05-23T07:11:24.445Z,18.40
2019-05-23T07:12:24.458Z,17.88
2019-05-23T07:13:24.459Z,17.54
2019-05-23T07:14:24.443Z,17.82
2019-05-23T07:15:24.473Z,18.19
2019-05-23T07:16:24.385Z,18.29
2019-05-23T07:17:24.371Z,18.25
2019-05-23T07:18:24.399Z,18.40
2019-05-23T07:19:24.431Z,18.21
2019-05-23T07:20:24.356Z,18.55
2019-05-23T07:21:24.407Z,18.65
2019-05-23T07:22:24.323Z,18.39
2019-05-23T07:23:24.304Z,18.34
2019-05-23T07:24:24.327Z,18.39
2019-05-23T07:25:24.284Z,18.62
2019-05-23T07:26:24.354Z,18.91
2019-05-23T07:27:24.260Z,18.91
2019-05-23T07:28:24.437Z,18.90
2019-05-23T07:29:24.246Z,18.91
2019-05-23T07:30:24.228Z,19.13
2019-05-23T07:31:24.309Z,19.21
2019-05-23T07:32:24.235Z,19.40
2019-05-23T07:33:24.303Z,19.46
2019-05-23T07:34:24.184Z,19.51
2019-05-23T07:35:24.175Z,19.57
2019-05-23T07:36:24.168Z,19.76
2019-05-23T07:37:24.434Z,19.95
2019-05-23T07:38:24.161Z,19.86
2019-05-23T07:39:24.180Z,19.98
2019-05-23T07:40:24.118Z,19.88
2019-05-23T07:41:24.114Z,20.09
2019-05-23T07:42:24.181Z,19.78
2019-05-23T07:43:24.078Z,19.21
2019-05-23T07:44:24.071Z,19.11
2019-05-23T07:45:24.063Z,18.92
2019-05-23T07:46:24.064Z,18.64
2019-05-23T07:47:24.084Z,18.42
2019-05-23T07:48:24.147Z,18.28
2019-05-23T07:49:24.028Z,18.61
2019-05-23T07:50:24.083Z,18.62
2019-05-23T07:51:24.014Z,18.67
2019-05-23T07:52:23.977Z,18.87
2019-05-23T07:53:23.969Z,18.54
2019-05-23T07:54:24.041Z,18.37
2019-05-23T07:55:23.955Z,18.40
2019-05-23T07:56:23.934Z,18.68
2019-05-23T07:57:23.936Z,18.64
2019-05-23T07:58:23.997Z,18.67
2019-05-23T07:59:23.912Z,18.87
2019-05-23T08:00:23.896Z,18.76
2019-05-23T08:01:23.885Z,18.83
2019-05-23T08:02:25.771Z,18.83
2019-05-23T08:03:23.960Z,18.49
2019-05-23T08:04:23.852Z,18.29
2019-05-23T08:05:23.841Z,18.22
2019-05-23T08:06:23.826Z,18.24
2019-05-23T08:07:23.821Z,18.65
2019-05-23T08:08:23.798Z,19.21
2019-05-23T08:09:23.844Z,19.72
2019-05-23T08:10:33.595Z,19.88
2019-05-23T08:11:24.771Z,19.88
2019-05-23T08:12:23.760Z,19.97
2019-05-23T08:13:23.886Z,19.87
2019-05-23T08:14:23.821Z,19.75
2019-05-23T08:15:23.728Z,19.25
2019-05-23T08:16:23.719Z,19.17
2019-05-23T08:17:23.709Z,18.73
2019-05-23T08:18:23.696Z,18.79
2019-05-23T08:19:23.682Z,19.06
2019-05-23T08:20:23.690Z,19.42
2019-05-23T08:21:23.661Z,19.87
2019-05-23T08:22:23.646Z,20.28
2019-05-23T08:23:23.633Z,20.31
2019-05-23T08:24:23.640Z,20.68
2019-05-23T08:25:23.700Z,20.98
2019-05-23T08:26:23.607Z,21.26
2019-05-23T08:27:23.662Z,21.45
2019-05-23T08:28:23.582Z,21.60
2019-05-23T08:29:26.680Z,21.72
2019-05-23T08:30:23.564Z,21.81
2019-05-23T08:31:23.553Z,22.12
2019-05-23T08:32:23.543Z,21.90
2019-05-23T08:33:23.523Z,21.90
2019-05-23T08:34:40.148Z,21.76
2019-05-23T08:35:24.592Z,21.79
2019-05-23T08:36:23.506Z,22.27
2019-05-23T08:37:23.486Z,22.19
2019-05-23T08:38:23.478Z,21.66
2019-05-23T08:39:23.482Z,21.59
2019-05-23T08:40:23.492Z,21.59
2019-05-23T08:41:23.481Z,21.29
2019-05-23T08:42:23.432Z,21.01
2019-05-23T08:43:23.416Z,20.87
2019-05-23T08:44:23.405Z,21.09
2019-05-23T08:45:23.397Z,21.54
2019-05-23T08:46:23.412Z,21.94
2019-05-23T08:47:23.384Z,22.12
2019-05-23T08:48:23.370Z,21.92
2019-05-23T08:49:23.369Z,21.91
2019-05-23T08:50:23.341Z,21.56
2019-05-23T08:51:23.334Z,21.56
2019-05-23T08:52:23.350Z,21.64
2019-05-23T08:53:23.312Z,21.71
2019-05-23T08:54:23.309Z,21.79
2019-05-23T08:55:23.295Z,21.63
2019-05-23T08:56:23.281Z,21.71
2019-05-23T08:57:23.353Z,21.94
2019-05-23T08:58:23.266Z,22.16
2019-05-23T08:59:23.263Z,22.68
2019-05-23T09:00:23.250Z,22.96
2019-05-23T09:01:23.230Z,23.27
2019-05-23T09:02:23.218Z,23.17
2019-05-23T09:03:23.293Z,23.27
2019-05-23T09:04:23.199Z,22.89
2019-05-23T09:05:23.195Z,22.74
2019-05-23T09:06:23.202Z,23.12
2019-05-23T09:07:23.171Z,23.49
2019-05-23T09:08:23.247Z,23.62
2019-05-23T09:09:29.612Z,24.07
2019-05-23T09:10:24.217Z,24.41
2019-05-23T09:11:23.128Z,24.38
2019-05-23T09:12:23.126Z,24.04
2019-05-23T09:13:23.108Z,24.00
2019-05-23T09:14:23.098Z,24.10
2019-05-23T09:15:23.087Z,24.02
2019-05-23T09:16:23.188Z,23.29
2019-05-23T09:17:23.069Z,22.72
2019-05-23T09:18:23.052Z,22.47
2019-05-23T09:19:23.164Z,22.44
2019-05-23T09:20:23.065Z,22.25
2019-05-23T09:21:23.021Z,21.85
2019-05-23T09:22:23.015Z,21.63
2019-05-23T09:23:23.008Z,21.36
2019-05-23T09:24:23.077Z,21.42
2019-05-23T09:25:22.992Z,21.61
2019-05-23T09:26:22.974Z,21.90
2019-05-23T09:27:22.975Z,22.29
2019-05-23T09:28:22.953Z,22.50
2019-05-23T09:29:23.037Z,22.74
2019-05-23T09:30:22.935Z,22.80
2019-05-23T09:31:22.938Z,22.89
2019-05-23T09:32:22.914Z,23.08
2019-05-23T09:33:22.909Z,23.35
2019-05-23T09:34:22.987Z,23.90
2019-05-23T09:35:22.969Z,24.16
2019-05-23T09:36:22.874Z,24.31
2019-05-23T09:37:22.954Z,24.59
2019-05-23T09:38:22.854Z,25.15
2019-05-23T09:39:22.840Z,25.16
2019-05-23T09:40:22.928Z,25.05
2019-05-23T09:41:22.823Z,24.49
2019-05-23T09:42:22.818Z,24.29
2019-05-23T09:43:22.839Z,24.50
2019-05-23T09:44:22.905Z,24.92
2019-05-23T09:45:22.868Z,25.22
2019-05-23T09:46:22.772Z,25.69
2019-05-23T09:47:22.762Z,26.11
2019-05-23T09:48:22.753Z,26.44
2019-05-23T09:49:22.745Z,26.44
2019-05-23T09:50:22.821Z,26.36
2019-05-23T09:51:22.727Z,26.29
2019-05-23T09:52:22.715Z,26.46
2019-05-23T09:53:22.706Z,26.87
2019-05-23T09:54:22.699Z,27.51
2019-05-23T09:55:22.781Z,27.79
2019-05-23T09:56:22.680Z,28.21
2019-05-23T09:57:22.680Z,28.13
2019-05-23T09:58:22.668Z,27.13
2019-05-23T09:59:22.651Z,26.76
2019-05-23T10:00:22.663Z,26.68
2019-05-23T10:01:22.716Z,26.46
2019-05-23T10:02:22.705Z,26.54
2019-05-23T10:03:22.608Z,27.06
2019-05-23T10:04:22.603Z,27.70
2019-05-23T10:05:40.867Z,27.84
2019-05-23T10:06:23.577Z,27.41
2019-05-23T10:07:22.568Z,27.80
2019-05-23T10:08:22.650Z,27.95
2019-05-23T10:09:22.555Z,28.25
2019-05-23T10:10:22.548Z,28.47
2019-05-23T10:11:22.552Z,28.60
2019-05-23T10:12:22.732Z,28.63
2019-05-23T10:13:37.705Z,28.33
2019-05-23T10:14:23.503Z,28.47
2019-05-23T10:15:22.492Z,28.59
2019-05-23T10:16:22.518Z,28.50
2019-05-23T10:17:22.513Z,27.96
2019-05-23T10:18:22.464Z,28.19
2019-05-23T10:19:22.455Z,28.33
2019-05-23T10:20:22.445Z,27.96
2019-05-23T10:21:22.442Z,27.13
2019-05-23T10:22:22.509Z,27.33
2019-05-23T10:23:22.418Z,27.19
2019-05-23T10:24:22.406Z,26.84
2019-05-23T10:25:22.406Z,26.96
2019-05-23T10:26:22.391Z,27.11
2019-05-23T10:27:22.488Z,26.76
2019-05-23T10:28:22.374Z,26.50
2019-05-23T10:29:22.456Z,26.24
2019-05-23T10:30:22.348Z,25.90
2019-05-23T10:31:22.336Z,25.57
2019-05-23T10:32:22.334Z,25.34
2019-05-23T10:33:22.318Z,25.19
2019-05-23T10:34:22.466Z,24.91
2019-05-23T10:35:22.302Z,25.06
2019-05-23T10:36:22.400Z,25.30
2019-05-23T10:37:22.283Z,25.68
2019-05-23T10:38:22.356Z,25.67
2019-05-23T10:39:22.268Z,25.71
2019-05-23T10:40:22.254Z,25.71
2019-05-23T10:41:22.329Z,25.84
2019-05-23T10:42:22.235Z,25.94
2019-05-23T10:43:22.227Z,26.15
2019-05-23T10:44:22.211Z,26.12
2019-05-23T10:45:22.199Z,26.06
2019-05-23T10:46:22.246Z,25.90
2019-05-23T10:47:22.206Z,25.86
2019-05-23T10:48:22.254Z,25.46
2019-05-23T10:49:22.162Z,25.42
2019-05-23T10:50:22.153Z,25.01
2019-05-23T10:51:22.165Z,24.80
2019-05-23T10:52:22.132Z,24.01
2019-05-23T10:53:22.121Z,23.29
2019-05-23T10:54:22.193Z,22.87
2019-05-23T10:55:22.147Z,22.67
2019-05-23T10:56:22.102Z,22.37
2019-05-23T10:57:22.087Z,22.27
2019-05-23T10:58:22.067Z,22.60
2019-05-23T10:59:22.160Z,22.62
2019-05-23T11:00:22.049Z,22.71
2019-05-23T11:01:22.037Z,22.96
2019-05-23T11:02:22.030Z,23.12
2019-05-23T11:03:22.020Z,23.27
2019-05-23T11:04:22.113Z,23.43
2019-05-23T11:05:22.080Z,23.53
2019-05-23T11:06:21.985Z,23.67
2019-05-23T11:07:22.189Z,23.87
2019-05-23T11:08:27.673Z,23.85
2019-05-23T11:09:36.562Z,23.80
2019-05-23T11:10:22.948Z,23.77
2019-05-23T11:11:21.972Z,23.82
2019-05-23T11:12:21.921Z,23.62
2019-05-23T11:13:21.924Z,23.52
2019-05-23T11:14:21.914Z,23.40
2019-05-23T11:15:22.000Z,23.40
2019-05-23T11:16:21.981Z,23.47
2019-05-23T11:17:21.871Z,23.60
2019-05-23T11:18:21.946Z,23.77
2019-05-23T11:19:21.855Z,23.87
2019-05-23T11:20:21.843Z,24.05
2019-05-23T11:21:22.122Z,23.64
2019-05-23T11:22:21.831Z,22.74
2019-05-23T11:23:21.893Z,22.44
2019-05-23T11:24:21.803Z,22.74
2019-05-23T11:25:21.803Z,22.96
2019-05-23T11:26:21.862Z,23.29
2019-05-23T11:27:21.771Z,23.58
2019-05-23T11:28:21.826Z,23.85
2019-05-23T11:29:21.742Z,23.94
2019-05-23T11:30:21.739Z,24.16
2019-05-23T11:31:21.729Z,24.37
2019-05-23T11:32:21.722Z,24.22
2019-05-23T11:33:21.703Z,24.14
2019-05-23T11:34:21.793Z,24.22
2019-05-23T11:35:21.683Z,23.79
2019-05-23T11:36:34.736Z,23.86
2019-05-23T11:37:22.670Z,23.86
2019-05-23T11:38:21.663Z,23.77
2019-05-23T11:39:21.640Z,23.75
2019-05-23T11:40:21.631Z,23.27
2019-05-23T11:41:21.713Z,22.82
2019-05-23T11:42:21.626Z,22.82
2019-05-23T11:43:21.596Z,23.05
2019-05-23T11:44:21.583Z,23.32
2019-05-23T11:45:21.573Z,23.42
2019-05-23T11:46:21.629Z,23.46
2019-05-23T11:47:21.595Z,23.53
2019-05-23T11:48:21.547Z,23.52
2019-05-23T11:49:21.531Z,23.29
2019-05-23T11:50:21.549Z,23.42
2019-05-23T11:51:25.227Z,23.42
2019-05-23T11:52:21.505Z,23.64
2019-05-23T11:53:21.570Z,23.67
2019-05-23T11:54:21.471Z,23.85
2019-05-23T11:55:21.467Z,24.10
2019-05-23T11:56:21.549Z,24.10
2019-05-23T11:57:21.456Z,23.90
2019-05-23T11:58:21.442Z,23.85
2019-05-23T11:59:21.426Z,23.89
2019-05-23T12:00:21.409Z,23.87
2019-05-23T12:01:21.614Z,24.02
2019-05-23T12:02:21.480Z,24.02
2019-05-23T12:03:21.387Z,24.02
2019-05-23T12:04:21.380Z,23.75
2019-05-23T12:05:21.369Z,23.15
2019-05-23T12:06:25.581Z,22.77
2019-05-23T12:07:21.368Z,22.65
2019-05-23T12:08:21.329Z,22.71
2019-05-23T12:09:21.315Z,22.64
2019-05-23T12:10:21.302Z,22.65
2019-05-23T12:11:21.285Z,22.56
2019-05-23T12:12:21.387Z,22.67
2019-05-23T12:13:21.270Z,22.92
2019-05-23T12:14:21.365Z,22.90
2019-05-23T12:15:21.247Z,22.94
2019-05-23T12:16:21.234Z,22.93
2019-05-23T12:17:21.230Z,22.92
2019-05-23T12:18:21.218Z,22.87
2019-05-23T12:19:21.365Z,22.84
2019-05-23T12:20:21.190Z,23.05
2019-05-23T12:21:21.206Z,23.14
2019-05-23T12:22:21.178Z,23.15
2019-05-23T12:23:21.156Z,23.29
2019-05-23T12:24:21.260Z,23.45
2019-05-23T12:25:23.336Z,23.52
2019-05-23T12:26:21.137Z,23.76
2019-05-23T12:27:21.117Z,23.80
2019-05-23T12:28:21.107Z,23.77
2019-05-23T12:29:21.103Z,23.57
2019-05-23T12:30:21.153Z,23.58
2019-05-23T12:31:21.156Z,23.55
2019-05-23T12:32:21.071Z,23.75
2019-05-23T12:33:21.053Z,24.05
2019-05-23T12:34:21.045Z,24.35
2019-05-23T12:35:21.030Z,24.45
2019-05-23T12:36:21.103Z,24.67
2019-05-23T12:37:21.107Z,24.57
2019-05-23T12:38:20.993Z,24.64
2019-05-23T12:39:20.993Z,24.77
2019-05-23T12:40:20.980Z,25.13
2019-05-23T12:41:20.973Z,25.19
2019-05-23T12:42:21.010Z,25.24
2019-05-23T12:43:20.942Z,25.37
2019-05-23T12:44:20.941Z,25.42
2019-05-23T12:45:20.928Z,25.53
2019-05-23T12:46:20.913Z,25.43
2019-05-23T12:47:21.004Z,25.37
2019-05-23T12:48:20.907Z,25.19
2019-05-23T12:49:20.896Z,25.27
2019-05-23T12:50:20.871Z,25.20
2019-05-23T12:51:20.854Z,25.20
2019-05-23T12:52:20.930Z,25.16